In Rescue
 
Open Full Screen Window  High Contrast Mode
November 25, 2020 5:05 AM CST
Present Weather: Mist
Weather Information
Wind Direction
  ---
Wind Speed
  00 kt (0 mph)
Wind Gust
  00 kt (0 mph)
Altimeter
29.90 in
Visibility
2 1/2 SM
Temperature
-03° C
27° F
Dewpoint
-04° C
25° F
Humidity
93%
1hr Rain Fall
00.00 in.
24hr Rain Fall
00.02 in.
Sky Condition
Overcast @ 400 ft
LIFR

METAR KDTL 251105Z AUTO 00000KT 2 1/2SM BR OVC004 M03/M04 A2990 RMK AO2

FAA Disclaimer: The data displayed is for advisory purposes only and is not to be used for flight planning or operations.